Aurora, Utah
Current Conditions -  °F | °C
As of 4:55 AM on Thursday 23 Oct 2014 (Local Time) from KDTA Reporting Station
Clear Clear  
Wind Chill: 36°   Ceiling: Unl
Heat Index: 39°   Visibility: 10mi
Dew Point: 29°   Wind: 5mph
Humidity: 68%   Direction: 40°NE
Pressure: 30.16"   Gusts: NA
Location:  38.92°N, 111.93°W
Report Text: KDTA 231055Z AUTO 04004KT 10SM CLR 04/M01 A3016 RMK AO1 T00391015
Loading
Personal Weather Stations






























Interactive Weather Map
Tropical Storm Tracking
New forecast layout! Learn more

10-Day Weather Forecast

Advertisements
Track Severe Weather on mobile